Terminal Aerodrome Forecast
Issued by NWS

Home | Current Version | Previous Version | Graphics & Text | Print | Product List | Glossary On
Versions: 1 2 3 4 5 6 7 8 9 10 11 12
000
FTUS45 KGGW 082324
TAFGDV
TAF
KGDV 082324Z 0900/0924 30011KT P6SM FEW180
     FM090400 30007KT P6SM SKC
     FM091300 26007KT P6SM SKC WS020/32035KT
     FM091800 28012KT P6SM SKC
     FM092100 28013G21KT P6SM SKC WS020/31040KT=

USA.gov is the U.S. government's official web portal to all federal, state and local government web resources and services.